Latest Weather Observations for Rolleston Airport

IDQ60801

Issued at 10:05 am EST Saturday 1 November 2014 (issued every 30 minutes, with the page automatically refreshed every 10 minutes)

About weather observations | Map of weather stations | Latest weather observations for QLD | Other Formats
Station Details ID: 035129 Name: ROLLESTON AIRPORT Lat: -24.46 Lon: 148.63 Height: 219.45 m
Data from the previous 72 hours. | See also: Recent months at Rolleston Airport
Date/Time
EST
Temp
°C
App
Temp
°C
Dew
Point
Rel
Hum
%
Delta-T
°C
Wind Press
QNH
hPa
Press
MSL
hPa
Rain
since 9 am
mm
Dir
 
Spd
km/h
Gust
km/h
Spd
kts
Gust
kts
01/10:00am 28.2 27.2 15.5 46 7.8 NNW 15 24 8 13 1015.3 1014.1 0.0
01/09:30am 26.6 25.0 15.0 49 7.1 N 17 28 9 15 1016.0 1015.0 0.0
01/09:00am 26.3 25.1 16.0 53 6.4 N 17 26 9 14 1016.2 1015.2 0.0
01/08:30am 24.7 24.9 16.7 61 5.0 N 11 19 6 10 1016.5 1015.5 0.0
01/08:00am 23.1 23.4 16.9 68 3.8 NNW 11 17 6 9 1016.4 1015.4 0.0
01/07:30am 22.2 21.6 16.7 71 3.4 N 15 20 8 11 1016.1 1015.1 0.0
01/07:00am 22.5 22.9 17.2 72 3.3 N 11 20 6 11 1016.0 1015.0 0.0
01/06:30am 20.9 22.3 17.3 80 2.2 N 6 15 3 8 1015.8 1014.8 0.0
01/06:00am 19.5 21.9 16.9 85 1.6 CALM 0 0 0 0 1015.5 1014.5 0.0
01/05:30am 18.6 20.7 16.2 86 1.4 CALM 0 0 0 0 1015.2 1014.2 0.0
01/05:00am 18.7 20.1 16.5 87 1.3 NNW 4 9 2 5 1014.8 1013.8 0.0
01/04:30am 18.7 19.4 16.1 85 1.6 NNW 7 9 4 5 1014.4 1013.4 0.0
01/04:00am 19.4 20.3 16.6 84 1.7 NNW 7 9 4 5 1014.1 1013.1 0.0
01/03:30am 20.0 20.5 16.6 81 2.1 NNW 9 13 5 7 1013.7 1012.7 0.0
01/03:00am 20.1 20.6 16.5 80 2.2 NNW 9 13 5 7 1013.5 1012.5 0.0
01/02:30am 20.4 20.9 15.6 74 2.9 NNW 7 9 4 5 1013.4 1012.4 0.0
01/02:00am 20.7 21.4 15.5 72 3.1 NNW 6 9 3 5 1013.6 1012.6 0.0
01/01:30am 21.1 21.9 15.9 72 3.1 NNW 6 7 3 4 1013.6 1012.6 0.0
01/01:00am 21.3 22.8 15.6 70 3.4 NNW 2 4 1 2 1013.5 1012.5 0.0
01/12:30am 21.5 22.2 15.6 69 3.6 N 6 7 3 4 1013.6 1012.6 0.0
01/12:00am 22.8 24.4 15.9 65 4.2 WNW 2 6 1 3 1013.6 1012.6 0.0
 
Date/Time
EST
Temp
°C
App
Temp
°C
Dew
Point
Rel
Hum
%
Delta-T
°C
Wind Press
QNH
hPa
Press
MSL
hPa
Rain
since 9 am
mm
Dir
 
Spd
km/h
Gust
km/h
Spd
kts
Gust
kts
31/11:30pm 23.5 23.7 15.8 62 4.7 N 9 13 5 7 1013.2 1012.2 0.0
31/11:00pm 24.4 24.0 16.1 60 5.1 N 13 19 7 10 1013.4 1012.4 0.0
31/10:30pm 25.5 23.9 16.1 56 5.8 NNE 19 28 10 15 1013.1 1012.0 0.0
31/10:00pm 25.9 24.6 15.9 54 6.2 N 17 24 9 13 1013.4 1012.4 0.0
31/09:30pm 26.2 25.2 14.6 48 7.0 N 13 19 7 10 1013.6 1012.6 0.0
31/09:00pm 26.6 24.9 13.7 45 7.7 N 15 19 8 10 1013.3 1012.3 0.0
31/08:30pm 27.3 25.7 12.9 41 8.5 N 13 22 7 12 1013.0 1011.9 0.0
31/08:00pm 28.4 26.3 12.3 37 9.5 N 15 20 8 11 1012.4 1011.3 0.0
31/07:30pm 29.3 26.5 11.4 33 10.4 N 17 22 9 12 1011.9 1010.8 0.0
31/07:00pm 30.0 27.2 10.0 29 11.4 N 15 19 8 10 1011.5 1010.5 0.0
31/06:30pm 30.9 27.5 9.2 26 12.3 N 17 22 9 12 1011.2 1010.2 0.0
31/06:00pm 32.1 28.4 10.2 26 12.7 N 20 33 11 18 1010.9 1009.9 0.0
31/05:30pm 33.2 29.8 10.5 25 13.2 N 19 28 10 15 1010.7 1009.7 0.0
31/05:00pm 33.9 31.4 11.1 25 13.5 N 15 24 8 13 1010.7 1009.7 0.0
31/04:30pm 34.2 30.1 8.0 20 14.8 N 19 35 10 19 1010.7 1009.7 0.0
31/04:00pm 34.1 31.1 10.7 24 13.8 N 17 28 9 15 1010.6 1009.6 0.0
31/03:30pm 34.2 30.6 10.7 24 13.8 NNE 20 33 11 18 1010.6 1009.6 0.0
31/03:00pm 34.4 31.1 11.5 25 13.6 N 20 30 11 16 1011.0 1010.0 0.0
31/02:30pm 35.1 32.7 11.5 24 14.1 N 15 24 8 13 1011.3 1010.3 0.0
31/02:00pm 34.1 32.4 12.4 26 13.1 N 13 24 7 13 1011.9 1010.8 0.0
31/01:30pm 33.2 32.1 14.3 32 11.7 NNW 13 20 7 11 1012.4 1011.3 0.0
31/01:00pm 32.3 32.4 14.4 33 11.0 N 7 13 4 7 1013.0 1011.9 0.0
31/12:30pm 30.7 30.9 14.3 36 10.0 NNW 6 13 3 7 1013.6 1012.6 0.0
31/12:00pm 29.8 30.6 15.9 43 8.7 NNE 6 13 3 7 1014.3 1013.3 0.0
31/11:30am 29.1 29.6 15.6 44 8.4 NNE 7 13 4 7 1014.8 1013.8 0.0
31/11:00am 27.1 28.2 16.7 53 6.5 NNW 6 17 3 9 1015.4 1014.4 0.0
31/10:30am 26.0 27.4 17.4 59 5.4 ENE 6 9 3 5 1015.7 1014.7 0.0
31/10:00am 24.6 27.2 18.3 68 4.0 N 2 7 1 4 1016.2 1015.2 0.0
31/09:30am 23.5 25.1 17.9 71 3.5 WSW 6 9 3 5 1016.7 1015.6 0.0
31/09:00am 24.1 25.8 18.1 69 3.8 WNW 6 9 3 5 1017.0 1015.9 2.2
31/08:30am 24.3 27.1 18.0 68 4.0 CALM 0 7 0 4 1016.8 1015.7 2.2
31/08:00am 23.3 25.2 17.7 71 3.5 NW 4 7 2 4 1016.5 1015.5 2.2
31/07:30am 22.8 25.1 18.6 77 2.7 N 4 7 2 4 1016.2 1015.2 2.2
31/07:00am 21.6 24.6 18.4 82 2.0 CALM 0 0 0 0 1015.9 1014.9 2.2
31/06:30am 21.1 23.8 18.7 86 1.5 N 2 4 1 2 1015.3 1014.3 2.2
31/06:00am 20.2 21.8 18.3 89 1.2 ENE 7 11 4 6 1015.1 1014.1 2.2
31/05:30am 20.0 22.8 18.0 88 1.2 CALM 0 0 0 0 1014.8 1013.8 2.2
31/05:00am 19.8 22.2 17.9 89 1.2 NW 2 6 1 3 1014.7 1013.7 2.2
31/04:30am 19.8 20.0 17.6 87 1.4 S 13 20 7 11 1013.8 1012.8 2.2
31/04:00am 20.7 21.1 18.1 85 1.6 NE 13 19 7 10 1011.9 1010.8 2.2
31/03:30am 20.0 22.2 18.3 90 1.1 E 4 13 2 7 1012.4 1011.3 2.2
31/03:00am 19.4 20.9 17.5 89 1.2 NNW 6 7 3 4 1013.5 1012.5 2.2
31/02:30am 19.7 21.2 17.7 88 1.2 N 6 9 3 5 1014.9 1013.9 2.0
31/02:00am 19.6 19.8 17.7 89 1.2 NW 13 20 7 11 1015.8 1014.8 1.8
31/01:30am 20.9 23.1 18.3 85 1.6 SSE 4 4 2 2 1015.1 1014.1 0.8
31/01:00am 20.9 22.4 18.1 84 1.8 S 7 11 4 6 1015.6 1014.6 0.6
31/12:30am 21.9 22.6 17.9 78 2.5 WSW 11 19 6 10 1016.9 1015.8 0.0
31/12:00am 22.9 22.7 17.6 72 3.3 SSE 15 24 8 13 1015.6 1014.6 0.0
 
Date/Time
EST
Temp
°C
App
Temp
°C
Dew
Point
Rel
Hum
%
Delta-T
°C
Wind Press
QNH
hPa
Press
MSL
hPa
Rain
since 9 am
mm
Dir
 
Spd
km/h
Gust
km/h
Spd
kts
Gust
kts
30/11:30pm 23.2 23.4 17.7 71 3.5 SE 13 15 7 8 1014.5 1013.5 0.0
30/11:00pm 23.5 23.4 17.0 67 4.0 SSE 13 20 7 11 1015.2 1014.2 0.0
30/10:30pm 24.5 23.8 16.5 61 4.9 SSW 15 28 8 15 1015.4 1014.4 0.0
30/10:00pm 26.3 22.8 14.4 48 7.2 SW 26 35 14 19 1014.9 1013.9 0.0
30/09:30pm 28.2 29.5 16.1 47 7.5 NNE 4 6 2 3 1013.3 1012.3 0.0
30/09:00pm 28.3 28.6 15.9 47 7.7 N 9 15 5 8 1012.4 1011.3 0.0
30/08:30pm 29.4 27.7 14.8 41 9.0 NNE 17 22 9 12 1012.1 1011.0 0.0
30/08:00pm 30.4 28.6 14.5 38 9.8 NNE 17 24 9 13 1011.4 1010.4 0.0
30/07:30pm 30.3 29.1 14.0 37 9.9 NE 13 17 7 9 1011.1 1010.1 0.0
30/07:00pm 30.8 28.8 12.7 33 10.8 ENE 15 20 8 11 1010.8 1009.8 0.0
30/06:30pm 31.7 29.8 10.4 27 12.3 E 11 13 6 7 1010.6 1009.6 0.0
30/06:00pm 33.4 30.0 10.7 25 13.3 NE 19 35 10 19 1010.2 1009.2 0.0
30/05:30pm 33.4 30.4 10.7 25 13.3 ENE 17 22 9 12 1010.2 1009.2 0.0
30/05:00pm 33.1 30.3 13.2 30 12.1 ENE 20 28 11 15 1009.8 1008.8 0.0
30/04:30pm 35.8 33.0 8.6 19 15.6 N 13 19 7 10 1009.5 1008.5 0.0
30/04:00pm 36.3 33.8 8.2 18 16.1 NNW 11 19 6 10 1009.4 1008.4 0.0
30/03:30pm 36.9 35.7 9.5 19 16.0 NW 6 11 3 6 1009.4 1008.4 0.0
30/03:00pm 37.5 35.3 12.2 22 15.4 N 15 24 8 13 1009.7 1008.7 0.0
30/02:30pm 36.0 34.4 11.6 23 14.6 NE 11 22 6 12 1010.3 1009.3 0.0
30/02:00pm 35.8 35.1 12.1 24 14.3 NW 7 17 4 9 1010.8 1009.8 0.0
30/01:30pm 35.4 35.0 12.4 25 13.9 NNW 6 13 3 7 1011.4 1010.4 0.0
30/01:00pm 34.4 33.2 12.7 27 13.2 N 11 19 6 10 1012.2 1011.1 0.0
30/12:30pm 33.7 33.7 13.7 30 12.3 NNW 6 11 3 6 1012.7 1011.6 0.0
30/12:00pm 32.5 31.8 13.2 31 11.7 NNE 9 17 5 9 1013.3 1012.3 0.0
30/11:30am 33.1 33.1 15.1 33 11.2 NNE 9 19 5 10 1013.8 1012.8 0.0
30/11:00am 31.6 32.1 15.1 36 10.3 ENE 6 15 3 8 1014.3 1013.3 0.0
30/10:30am 29.8 29.9 14.4 39 9.4 N 7 13 4 7 1014.9 1013.9 0.0
30/10:00am 30.1 30.7 15.8 42 8.9 E 7 11 4 6 1015.3 1014.3 0.0
30/09:30am 28.6 29.0 16.2 47 7.8 E 9 15 5 8 1015.6 1014.6 0.0
30/09:00am 28.8 28.7 16.0 45 8.0 ESE 11 22 6 12 1015.4 1014.4 0.2
30/08:30am 27.6 27.0 15.6 48 7.4 SE 13 20 7 11 1015.6 1014.6 0.2
30/08:00am 27.3 27.1 16.6 52 6.7 SE 13 19 7 10 1015.7 1014.7 0.2
30/07:30am 25.7 25.2 16.0 55 6.0 SE 13 19 7 10 1015.6 1014.6 0.2
30/07:00am 24.8 24.0 15.1 54 5.9 E 13 19 7 10 1015.3 1014.3 0.2
30/06:30am 22.6 22.0 13.4 56 5.4 ESE 9 13 5 7 1015.4 1014.4 0.2
30/06:00am 20.8 19.9 12.5 59 4.7 ESE 9 11 5 6 1015.1 1014.1 0.2
30/05:30am 19.4 18.2 11.7 61 4.3 SE 9 11 5 6 1014.7 1013.7 0.2
30/05:00am 19.0 18.8 10.3 57 4.7 SSE 2 9 1 5 1014.4 1013.4 0.2
30/04:30am 19.6 19.6 9.8 53 5.3 CALM 0 4 0 2 1014.0 1013.0 0.2
30/04:00am 20.6 19.7 9.2 48 6.1 N 4 7 2 4 1014.0 1013.0 0.2
30/03:30am 20.5 20.1 8.2 45 6.5 CALM 0 0 0 0 1013.6 1012.6 0.2
30/03:00am 20.7 20.2 8.0 44 6.7 CALM 0 2 0 1 1013.3 1012.3 0.2
30/02:30am 22.1 19.1 5.9 35 8.2 E 11 11 6 6 1013.0 1011.9 0.2
30/02:00am 21.7 20.2 6.8 38 7.7 ESE 4 7 2 4 1013.1 1012.0 0.2
30/01:30am 22.0 20.6 7.4 39 7.6 SSW 4 4 2 2 1013.3 1012.3 0.2
30/01:00am 23.2 21.3 6.9 35 8.5 WSW 6 7 3 4 1013.2 1012.2 0.2
30/12:30am 22.1 19.9 6.3 36 8.1 WNW 7 15 4 8 1013.0 1011.9 0.2
30/12:00am 21.2 19.3 6.7 39 7.4 S 6 7 3 4 1012.7 1011.6 0.2
 
Date/Time
EST
Temp
°C
App
Temp
°C
Dew
Point
Rel
Hum
%
Delta-T
°C
Wind Press
QNH
hPa
Press
MSL
hPa
Rain
since 9 am
mm
Dir
 
Spd
km/h
Gust
km/h
Spd
kts
Gust
kts
29/11:30pm 22.7 20.2 6.5 35 8.4 SE 9 11 5 6 1013.1 1012.0 0.2
29/11:00pm 24.3 22.1 6.1 31 9.4 ESE 7 13 4 7 1013.4 1012.4 0.2
29/10:30pm 23.8 21.8 7.0 34 8.8 S 7 7 4 4 1013.1 1012.0 0.2
29/10:00pm 23.9 22.7 7.9 36 8.5 S 4 7 2 4 1013.0 1011.9 0.2
29/09:30pm 25.4 23.9 6.6 30 9.9 S 4 7 2 4 1012.9 1011.8 0.2
29/09:00pm 28.5 26.6 4.7 22 12.3 E 4 6 2 3 1012.7 1011.6 0.2
29/08:30pm 27.2 24.8 7.1 28 10.8 SSE 9 11 5 6 1012.5 1011.4 0.2
29/08:00pm 30.7 27.9 5.2 20 13.5 ENE 9 11 5 6 1012.1 1011.0 0.2
29/07:30pm 30.8 29.4 7.3 23 12.9 E 4 9 2 5 1011.7 1010.7 0.2
29/07:00pm 31.1 30.5 7.5 23 13.0 CALM 0 0 0 0 1011.5 1010.5 0.2
29/06:30pm 32.3 31.3 5.7 19 14.3 CALM 0 0 0 0 1011.2 1010.2 0.2
29/06:00pm 34.6 33.5 5.1 16 15.9 CALM 0 0 0 0 1010.9 1009.9 0.2
29/05:30pm 36.0 33.8 3.3 13 17.3 SW 4 6 2 3 1010.7 1009.7 0.2
29/05:00pm 36.5 34.0 3.7 13 17.5 SSW 6 9 3 5 1010.7 1009.7 0.2
29/04:30pm 36.5 34.0 3.7 13 17.5 ESE 6 11 3 6 1010.6 1009.6 0.2
29/04:00pm 36.9 34.4 4.0 13 17.7 S 6 9 3 5 1010.6 1009.6 0.2
29/03:30pm 37.0 34.5 4.0 13 17.7 S 6 9 3 5 1010.6 1009.6 0.2
29/03:00pm 35.7 33.4 3.0 13 17.2 ESE 4 9 2 5 1011.0 1010.0 0.2
29/02:30pm 37.1 34.7 5.2 14 17.5 S 7 13 4 7 1011.4 1010.4 0.2
29/02:00pm 36.0 33.2 2.1 12 17.6 W 6 9 3 5 1011.9 1010.8 0.2
29/01:30pm 35.4 32.4 3.9 14 16.8 SE 9 19 5 10 1012.3 1011.2 0.2
29/01:00pm 35.1 31.6 1.5 12 17.2 WSW 9 19 5 10 1012.7 1011.6 0.2
29/12:30pm 35.0 31.9 1.4 12 17.1 S 7 15 4 8 1013.2 1012.2 0.2
29/12:00pm 34.3 30.7 0.8 12 16.8 S 9 19 5 10 1013.7 1012.7 0.2
29/11:30am 33.5 30.2 0.2 12 16.5 SE 7 19 4 10 1014.2 1013.2 0.2
29/11:00am 32.8 28.5 0.8 13 15.9 S 13 22 7 12 1014.7 1013.7 0.2
29/10:30am 31.5 26.8 0.8 14 15.2 S 15 24 8 13 1015.2 1014.2 0.2

Other Formats:

Comma delimited format used in spreadsheet applications
http://www.bom.gov.au/fwo/IDQ60801/IDQ60801.94396.axf

JavaScript Object Notation format (JSON) in row-major order
http://www.bom.gov.au/fwo/IDQ60801/IDQ60801.94396.json